createdAt,value
2023-05-14T00:00:43.916Z,101162.97
2023-05-14T00:03:12.400Z,101162.81
2023-05-14T00:05:42.224Z,101165.06
2023-05-14T00:08:10.584Z,101167.41
2023-05-14T00:10:38.954Z,101170.13
2023-05-14T00:13:07.335Z,101167.06
2023-05-14T00:15:35.628Z,101160.63
2023-05-14T00:18:04.200Z,101167.78
2023-05-14T00:20:32.580Z,101165.03
2023-05-14T00:23:02.262Z,101163.31
2023-05-14T00:25:30.958Z,101154.84
2023-05-14T00:27:59.238Z,101156.53
2023-05-14T00:30:27.614Z,101150.06
2023-05-14T00:32:55.991Z,101146.66
2023-05-14T00:35:24.579Z,101148.03
2023-05-14T00:37:52.915Z,101142.25
2023-05-14T00:40:26.977Z,101154.19
2023-05-14T00:42:55.622Z,101131.72
2023-05-14T00:45:24.034Z,101142.25
2023-05-14T00:47:52.651Z,101128.28
2023-05-14T00:50:22.326Z,101133.06
2023-05-14T00:52:50.908Z,101115.06
2023-05-14T00:55:20.412Z,101131.22
2023-05-14T00:57:51.653Z,101129.53
2023-05-14T01:00:20.300Z,101125.13
2023-05-14T01:02:48.683Z,101129.16
2023-05-14T01:05:17.096Z,101129.53
2023-05-14T01:07:56.392Z,101132.13
2023-05-14T01:10:33.355Z,101125.03
2023-05-14T01:13:18.438Z,101122.47
2023-05-14T01:15:48.782Z,101129.44
2023-05-14T01:18:20.052Z,101128.47
2023-05-14T01:20:52.213Z,101128.31
2023-05-14T01:23:22.027Z,101121.84
2023-05-14T01:25:50.455Z,101124.56
2023-05-14T01:28:21.095Z,101124.41
2023-05-14T01:31:02.873Z,101121.69
2023-05-14T01:33:34.688Z,101127.50
2023-05-14T01:36:03.279Z,101118.69
2023-05-14T01:38:34.883Z,101120.22
2023-05-14T01:41:04.439Z,101113.44
2023-05-14T01:43:33.001Z,101117.69
2023-05-14T01:46:01.322Z,101117.00
2023-05-14T01:48:30.438Z,101112.25
2023-05-14T01:50:58.671Z,101104.75
2023-05-14T01:53:27.550Z,101105.75
2023-05-14T01:55:57.154Z,101100.47
2023-05-14T01:58:25.577Z,101085.69
2023-05-14T02:00:54.548Z,101104.53
2023-05-14T02:03:22.804Z,101090.25
2023-05-14T02:05:51.172Z,101092.66
2023-05-14T02:08:19.460Z,101088.91
2023-05-14T02:10:47.669Z,101086.38
2023-05-14T02:13:18.065Z,101102.19
2023-05-14T02:15:46.247Z,101090.69
2023-05-14T02:18:14.693Z,101101.31
2023-05-14T02:20:43.116Z,101107.28
2023-05-14T02:23:11.434Z,101103.06
2023-05-14T02:25:39.859Z,101101.19
2023-05-14T02:28:08.153Z,101107.31
2023-05-14T02:30:37.756Z,101077.91
2023-05-14T02:33:06.187Z,101103.72
2023-05-14T02:35:34.567Z,101098.97
2023-05-14T02:38:02.883Z,101094.03
2023-05-14T02:40:31.155Z,101103.19
2023-05-14T02:42:59.369Z,101098.94
2023-05-14T02:45:27.725Z,101100.78
2023-05-14T02:47:57.368Z,101104.69
2023-05-14T02:50:25.984Z,101101.47
2023-05-14T02:52:54.501Z,101097.41
2023-05-14T02:55:22.907Z,101097.97
2023-05-14T02:57:52.734Z,101099.31
2023-05-14T03:00:22.466Z,101089.16
2023-05-14T03:02:52.628Z,101099.47
2023-05-14T03:05:23.063Z,101095.59
2023-05-14T03:07:53.640Z,101094.22
2023-05-14T03:10:22.143Z,101090.13
2023-05-14T03:12:50.772Z,101090.63
2023-05-14T03:15:19.067Z,101082.44
2023-05-14T03:17:47.337Z,101093.25
2023-05-14T03:20:15.656Z,101093.44
2023-05-14T03:22:45.360Z,101091.38
2023-05-14T03:25:13.744Z,101096.16
2023-05-14T03:27:41.946Z,101086.66
2023-05-14T03:30:11.833Z,101081.41
2023-05-14T03:32:41.440Z,101072.41
2023-05-14T03:35:10.288Z,101080.44
2023-05-14T03:37:38.505Z,101083.47
2023-05-14T03:40:09.634Z,101084.69
2023-05-14T03:42:38.152Z,101088.59
2023-05-14T03:45:07.828Z,101084.03
2023-05-14T03:47:36.199Z,101078.91
2023-05-14T03:50:04.986Z,101078.06
2023-05-14T03:52:33.303Z,101085.38
2023-05-14T03:55:03.882Z,101084.69
2023-05-14T03:57:33.546Z,101085.88
2023-05-14T04:00:02.000Z,101078.72
2023-05-14T04:02:31.721Z,101093.00
2023-05-14T04:05:00.207Z,101086.88
2023-05-14T04:07:28.580Z,101089.22
2023-05-14T04:09:56.932Z,101085.56
2023-05-14T04:12:26.734Z,101087.19
2023-05-14T04:14:57.876Z,101080.72
2023-05-14T04:17:26.436Z,101082.34
2023-05-14T04:19:54.959Z,101072.59
2023-05-14T04:22:23.324Z,101076.94
2023-05-14T04:24:52.129Z,101072.72
2023-05-14T04:27:22.306Z,101080.03
2023-05-14T04:29:51.119Z,101074.78
2023-05-14T04:32:21.525Z,101077.88
2023-05-14T04:34:49.849Z,101078.44
2023-05-14T04:37:18.224Z,101074.66
2023-05-14T04:39:46.469Z,101074.63
2023-05-14T04:42:14.755Z,101068.84
2023-05-14T04:44:43.037Z,101069.69
2023-05-14T04:47:11.348Z,101063.16
2023-05-14T04:49:40.999Z,101059.47
2023-05-14T04:52:09.578Z,101063.34
2023-05-14T04:54:37.920Z,101058.53
2023-05-14T04:57:06.570Z,101056.66
2023-05-14T04:59:34.861Z,101064.31
2023-05-14T05:02:03.399Z,101058.97
2023-05-14T05:04:31.603Z,101072.44
2023-05-14T05:07:01.233Z,101063.63
2023-05-14T05:09:29.499Z,101063.69
2023-05-14T05:11:57.737Z,101067.44
2023-05-14T05:14:26.400Z,101074.78
2023-05-14T05:16:54.671Z,101066.75
2023-05-14T05:19:35.870Z,101066.66
2023-05-14T05:22:12.399Z,101067.81
2023-05-14T05:24:40.724Z,101063.25
2023-05-14T05:27:08.940Z,101066.25
2023-05-14T05:29:37.616Z,101060.59
2023-05-14T05:32:06.707Z,101068.22
2023-05-14T05:34:35.819Z,101061.47
2023-05-14T05:37:05.204Z,101061.50
2023-05-14T05:39:35.340Z,101066.97
2023-05-14T05:42:03.798Z,101063.31
2023-05-14T05:44:31.990Z,101058.44
2023-05-14T05:47:00.319Z,101061.38
2023-05-14T05:49:28.678Z,101059.53
2023-05-14T05:51:57.039Z,101060.78
2023-05-14T05:54:27.212Z,101059.13
2023-05-14T05:56:56.853Z,101062.50
2023-05-14T05:59:25.724Z,101063.34
2023-05-14T06:01:54.132Z,101064.00
2023-05-14T06:04:22.357Z,101058.69
2023-05-14T06:06:50.619Z,101067.59
2023-05-14T06:09:18.937Z,101055.72
2023-05-14T06:11:47.271Z,101064.53
2023-05-14T06:14:16.879Z,101062.88
2023-05-14T06:16:45.173Z,101056.66
2023-05-14T06:19:13.517Z,101060.22
2023-05-14T06:21:41.902Z,101065.19
2023-05-14T06:24:10.567Z,101053.66
2023-05-14T06:26:38.739Z,101055.78
2023-05-14T06:29:07.015Z,101055.50
2023-05-14T06:31:36.735Z,101060.44
2023-05-14T06:34:05.125Z,101051.84
2023-05-14T06:36:33.309Z,101050.03
2023-05-14T06:39:01.563Z,101054.28
2023-05-14T06:41:29.820Z,101055.78
2023-05-14T06:43:58.043Z,101048.41
2023-05-14T06:46:26.206Z,101052.53
2023-05-14T06:48:58.110Z,101049.38
2023-05-14T06:51:27.786Z,101051.69
2023-05-14T06:53:56.326Z,101044.28
2023-05-14T06:56:24.561Z,101039.97
2023-05-14T06:58:52.789Z,101048.25
2023-05-14T07:01:21.064Z,101038.06
2023-05-14T07:03:49.378Z,101040.47
2023-05-14T07:06:19.079Z,101030.03
2023-05-14T07:08:47.384Z,101030.50
2023-05-14T07:11:15.904Z,101036.97
2023-05-14T07:13:44.265Z,101028.09
2023-05-14T07:16:12.544Z,101029.06
2023-05-14T07:18:41.069Z,101027.59
2023-05-14T07:21:10.378Z,101028.19
2023-05-14T07:23:40.086Z,101028.94
2023-05-14T07:26:09.125Z,101019.50
2023-05-14T07:28:37.405Z,101022.28
2023-05-14T07:31:09.076Z,101022.81
2023-05-14T07:33:37.528Z,101020.09
2023-05-14T07:36:06.321Z,101017.66
2023-05-14T07:38:34.629Z,101012.31
2023-05-14T07:41:04.258Z,101015.13
2023-05-14T07:43:32.541Z,101012.50
2023-05-14T07:46:00.760Z,101004.50
2023-05-14T07:48:28.996Z,101003.94
2023-05-14T07:50:57.459Z,101009.34
2023-05-14T07:53:26.288Z,101008.53
2023-05-14T07:55:54.776Z,101008.16
2023-05-14T07:58:25.148Z,101005.50
2023-05-14T08:00:53.560Z,101008.72
2023-05-14T08:03:22.176Z,101003.81
2023-05-14T08:05:51.874Z,100999.72
2023-05-14T08:08:20.099Z,100999.72
2023-05-14T08:10:48.285Z,101006.47
2023-05-14T08:13:16.553Z,100995.88
2023-05-14T08:15:46.301Z,100998.66
2023-05-14T08:18:14.530Z,101001.88
2023-05-14T08:20:42.752Z,101004.56
2023-05-14T08:23:11.192Z,101006.59
2023-05-14T08:25:39.579Z,101004.25
2023-05-14T08:28:08.598Z,101007.91
2023-05-14T08:30:36.957Z,101003.59
2023-05-14T08:33:06.817Z,101002.88
2023-05-14T08:35:35.067Z,101003.06
2023-05-14T08:38:03.602Z,100999.78
2023-05-14T08:40:31.930Z,100993.66
2023-05-14T08:43:01.530Z,100991.50
2023-05-14T08:45:34.033Z,100995.13
2023-05-14T08:48:05.718Z,100996.94
2023-05-14T08:50:36.106Z,101002.94
2023-05-14T08:53:04.360Z,100994.03
2023-05-14T08:55:34.168Z,100998.94
2023-05-14T08:58:02.549Z,100993.19
2023-05-14T09:00:31.132Z,100991.41
2023-05-14T09:03:01.128Z,100987.75
2023-05-14T09:05:29.433Z,100985.47
2023-05-14T09:07:59.118Z,100986.63
2023-05-14T09:10:27.383Z,100987.38
2023-05-14T09:12:55.778Z,100981.66
2023-05-14T09:15:27.515Z,100977.31
2023-05-14T09:17:55.877Z,100971.34
2023-05-14T09:20:25.700Z,100964.91
2023-05-14T09:22:55.052Z,100972.56
2023-05-14T09:25:28.469Z,100967.69
2023-05-14T09:27:58.994Z,100964.94
2023-05-14T09:30:27.665Z,100968.34
2023-05-14T09:32:56.336Z,100961.25
2023-05-14T09:35:26.205Z,100965.19
2023-05-14T09:37:55.970Z,100956.59
2023-05-14T09:40:25.945Z,100950.25
2023-05-14T09:42:54.431Z,100956.22
2023-05-14T09:45:22.735Z,100956.13
2023-05-14T09:47:51.509Z,100946.59
2023-05-14T09:50:19.983Z,100946.84
2023-05-14T09:52:48.835Z,100946.44
2023-05-14T09:55:17.331Z,100946.13
2023-05-14T09:57:47.050Z,100951.09
2023-05-14T10:00:17.266Z,100945.56
2023-05-14T10:02:47.926Z,100948.38
2023-05-14T10:05:17.665Z,100940.69
2023-05-14T10:07:48.908Z,100933.75
2023-05-14T10:10:20.087Z,100933.16
2023-05-14T10:12:54.212Z,100940.81
2023-05-14T10:15:30.407Z,100935.56
2023-05-14T10:18:04.687Z,100926.66
2023-05-14T10:20:33.598Z,100920.22
2023-05-14T10:23:02.150Z,100922.66
2023-05-14T10:25:31.252Z,100927.22
2023-05-14T10:28:01.532Z,100920.09
2023-05-14T10:30:29.745Z,100915.84
2023-05-14T10:33:09.058Z,100913.72
2023-05-14T10:35:56.653Z,100902.88
2023-05-14T10:38:28.290Z,100901.59
2023-05-14T10:40:59.069Z,100901.25
2023-05-14T10:43:31.098Z,100901.97
2023-05-14T10:46:01.171Z,100900.94
2023-05-14T10:48:30.052Z,100896.94
2023-05-14T10:50:59.080Z,100896.06
2023-05-14T10:53:35.773Z,100895.00
2023-05-14T10:56:09.142Z,100890.38
2023-05-14T10:58:40.159Z,100888.81
2023-05-14T11:01:09.467Z,100898.41
2023-05-14T11:03:43.012Z,100888.69
2023-05-14T11:06:13.151Z,100888.44
2023-05-14T11:08:43.934Z,100889.13
2023-05-14T11:11:12.730Z,100874.78
2023-05-14T11:13:45.808Z,100888.25
2023-05-14T11:16:23.323Z,100884.13
2023-05-14T11:19:02.082Z,100883.53
2023-05-14T11:21:31.861Z,100883.81
2023-05-14T11:24:03.810Z,100877.84
2023-05-14T11:26:33.455Z,100881.34
2023-05-14T11:29:03.230Z,100872.31
2023-05-14T11:31:31.854Z,100865.38
2023-05-14T11:34:00.487Z,100862.22
2023-05-14T11:36:28.970Z,100867.41
2023-05-14T11:38:57.212Z,100864.38
2023-05-14T11:41:26.327Z,100855.72
2023-05-14T11:43:54.792Z,100858.31
2023-05-14T11:46:25.921Z,100853.78
2023-05-14T11:48:54.294Z,100856.97
2023-05-14T11:51:23.106Z,100852.28
2023-05-14T11:53:51.354Z,100856.50
2023-05-14T11:56:19.633Z,100856.03
2023-05-14T11:58:51.175Z,100855.34
2023-05-14T12:01:19.574Z,100853.28
2023-05-14T12:03:49.336Z,100857.25
2023-05-14T12:06:17.728Z,100854.09
2023-05-14T12:08:48.628Z,100852.06
2023-05-14T12:11:21.922Z,100840.19
2023-05-14T12:13:50.264Z,100843.19
2023-05-14T12:16:18.555Z,100838.44
2023-05-14T12:18:49.269Z,100830.75
2023-05-14T12:21:19.026Z,100833.44
2023-05-14T12:23:48.334Z,100828.56
2023-05-14T12:26:17.860Z,100829.41
2023-05-14T12:28:50.272Z,100834.97
2023-05-14T12:31:29.815Z,100812.25
2023-05-14T12:33:59.616Z,100824.78
2023-05-14T12:36:28.042Z,100831.53
2023-05-14T12:39:00.587Z,100832.81
2023-05-14T12:41:29.018Z,100829.47
2023-05-14T12:43:57.173Z,100829.28
2023-05-14T12:46:26.574Z,100818.06
2023-05-14T12:48:55.142Z,100815.84
2023-05-14T12:51:24.932Z,100808.97
2023-05-14T12:53:54.256Z,100806.69
2023-05-14T12:56:27.814Z,100804.31
2023-05-14T12:58:57.301Z,100795.34
2023-05-14T13:01:26.007Z,100787.06
2023-05-14T13:03:55.461Z,100785.97
2023-05-14T13:06:25.110Z,100785.38
2023-05-14T13:08:53.374Z,100792.53
2023-05-14T13:11:21.829Z,100783.25
2023-05-14T13:13:50.033Z,100779.09
2023-05-14T13:16:18.291Z,100778.25
2023-05-14T13:18:46.725Z,100772.19
2023-05-14T13:21:15.068Z,100783.94
2023-05-14T13:23:44.690Z,100779.28
2023-05-14T13:26:13.071Z,100776.44
2023-05-14T13:28:41.838Z,100774.06
2023-05-14T13:31:12.461Z,100772.34
2023-05-14T13:33:41.990Z,100764.63
2023-05-14T13:36:11.867Z,100776.88
2023-05-14T13:38:40.221Z,100762.97
2023-05-14T13:41:10.061Z,100756.66
2023-05-14T13:43:38.438Z,100757.22
2023-05-14T13:46:07.525Z,100753.69
2023-05-14T13:48:37.348Z,100757.59
2023-05-14T13:51:05.735Z,100747.50
2023-05-14T13:53:33.967Z,100753.19
2023-05-14T13:56:02.218Z,100750.28
2023-05-14T13:58:32.139Z,100734.22
2023-05-14T14:01:00.547Z,100742.63
2023-05-14T14:03:28.970Z,100744.81
2023-05-14T14:05:57.286Z,100736.84
2023-05-14T14:08:25.837Z,100734.88
2023-05-14T14:10:55.588Z,100732.22
2023-05-14T14:13:24.643Z,100728.19
2023-05-14T14:15:54.528Z,100726.66
2023-05-14T14:18:23.003Z,100722.44
2023-05-14T14:20:51.372Z,100729.63
2023-05-14T14:23:20.004Z,100721.13
2023-05-14T14:25:48.455Z,100719.09
2023-05-14T14:28:16.921Z,100720.28
2023-05-14T14:30:45.209Z,100722.44
2023-05-14T14:33:14.995Z,100715.81
2023-05-14T14:35:43.409Z,100715.25
2023-05-14T14:38:11.810Z,100719.75
2023-05-14T14:40:40.262Z,100713.53
2023-05-14T14:43:08.521Z,100716.16
2023-05-14T14:45:36.763Z,100721.72
2023-05-14T14:48:26.869Z,100715.59
2023-05-14T14:50:55.737Z,100715.47
2023-05-14T14:53:24.864Z,100707.16
2023-05-14T14:55:53.361Z,100699.94
2023-05-14T14:58:23.086Z,100704.88
2023-05-14T15:00:53.149Z,100705.41
2023-05-14T15:03:22.097Z,100706.38
2023-05-14T15:05:53.553Z,100703.59
2023-05-14T15:08:25.981Z,100706.97
2023-05-14T15:10:54.376Z,100713.34
2023-05-14T15:13:22.709Z,100707.19
2023-05-14T15:15:52.042Z,100714.88
2023-05-14T15:18:20.625Z,100712.63
2023-05-14T15:20:48.922Z,100710.50
2023-05-14T15:23:18.674Z,100708.00
2023-05-14T15:25:46.992Z,100711.97
2023-05-14T15:28:15.789Z,100709.44
2023-05-14T15:30:44.146Z,100702.19
2023-05-14T15:33:12.446Z,100695.84
2023-05-14T15:35:40.781Z,100691.22
2023-05-14T15:38:09.131Z,100690.22
2023-05-14T15:40:38.826Z,100688.00
2023-05-14T15:43:07.064Z,100678.63
2023-05-14T15:45:35.434Z,100679.09
2023-05-14T15:48:03.713Z,100680.38
2023-05-14T15:50:32.014Z,100676.22
2023-05-14T15:53:01.390Z,100673.31
2023-05-14T15:55:29.731Z,100673.84
2023-05-14T15:57:59.413Z,100667.22
2023-05-14T16:00:27.848Z,100667.72
2023-05-14T16:02:56.472Z,100665.38
2023-05-14T16:05:24.968Z,100664.88
2023-05-14T16:07:53.436Z,100651.75
2023-05-14T16:10:22.530Z,100653.22
2023-05-14T16:12:51.210Z,100657.06
2023-05-14T16:15:20.988Z,100647.41
2023-05-14T16:17:49.553Z,100651.72
2023-05-14T16:20:17.888Z,100643.28
2023-05-14T16:22:46.163Z,100650.84
2023-05-14T16:25:14.491Z,100644.78
2023-05-14T16:27:42.764Z,100644.09
2023-05-14T16:30:11.978Z,100651.75
2023-05-14T16:32:42.343Z,100644.59
2023-05-14T16:35:11.098Z,100647.97
2023-05-14T16:37:39.457Z,100640.91
2023-05-14T16:40:11.522Z,100643.44
2023-05-14T16:42:40.216Z,100635.78
2023-05-14T16:45:10.000Z,100636.63
2023-05-14T16:47:38.574Z,100635.19
2023-05-14T16:50:09.328Z,100623.28
2023-05-14T16:52:37.618Z,100627.66
2023-05-14T16:55:06.745Z,100621.34
2023-05-14T16:57:35.478Z,100626.50
2023-05-14T17:00:06.301Z,100635.47
2023-05-14T17:02:34.786Z,100630.47
2023-05-14T17:05:04.039Z,100632.28
2023-05-14T17:07:34.010Z,100626.88
2023-05-14T17:10:02.335Z,100626.69
2023-05-14T17:12:30.733Z,100640.66
2023-05-14T17:14:59.044Z,100632.75
2023-05-14T17:17:27.811Z,100637.63
2023-05-14T17:19:56.410Z,100633.13
2023-05-14T17:22:24.744Z,100634.19
2023-05-14T17:24:54.412Z,100644.03
2023-05-14T17:27:22.809Z,100652.53
2023-05-14T17:29:51.257Z,100651.59
2023-05-14T17:32:19.641Z,100655.78
2023-05-14T17:34:48.016Z,100649.38
2023-05-14T17:37:16.524Z,100656.03
2023-05-14T17:39:44.896Z,100658.69
2023-05-14T17:42:14.780Z,100656.78
2023-05-14T17:44:43.256Z,100656.56
2023-05-14T17:47:11.640Z,100654.91
2023-05-14T17:49:40.045Z,100663.22
2023-05-14T17:52:08.714Z,100660.38
2023-05-14T17:54:37.001Z,100662.66
2023-05-14T17:57:05.826Z,100666.50
2023-05-14T17:59:35.693Z,100655.69
2023-05-14T18:02:05.685Z,100662.16
2023-05-14T18:04:34.142Z,100663.13
2023-05-14T18:07:03.249Z,100673.47
2023-05-14T18:09:31.866Z,100663.41
2023-05-14T18:12:00.215Z,100662.78
2023-05-14T18:14:28.411Z,100662.69
2023-05-14T18:16:58.294Z,100654.28
2023-05-14T18:20:39.840Z,100667.00
